Time;durP1;ratioP1;P1;durP2;ratioP2;P2;SDS_P1;SDS_P2;PMS_P1;PMS_P2;Temp;Humidity;BMP_temperature;BMP_pressure;BME280_temperature;BME280_humidity;BME280_pressure;Samples;Min_cycle;Max_cycle;Signal;HPM_P1;HPM_P2
2022/12/07 00:02:05;;;;;;;;;;;;;;;;;;5062865;28;19917;-63
2022/12/07 00:04:31;;;;;;;;;;;;;;;;;;5071639;28;19912;-63
2022/12/07 00:06:56;;;;;;;;;;;;;;;;;;5096872;28;19974;-63
2022/12/07 00:09:21;;;;;;;;;;;;;;;;;;5067982;28;19924;-63
2022/12/07 00:11:46;;;;;;;;;;;;;;;;;;5074386;28;20007;-63
2022/12/07 00:14:11;;;;;;;;;;;;;;;;;;5098967;28;19912;-63
2022/12/07 00:16:36;;;;;;;;;;;;;;;;;;5070405;28;19955;-64
2022/12/07 00:19:02;;;;;;;;;;;;;;;;;;5071235;28;20018;-64
2022/12/07 00:21:27;;;;;;;;;;;;;;;;;;5068703;28;19920;-63
2022/12/07 00:23:52;;;;;;;;;;;;;;;;;;5067304;28;19913;-63
2022/12/07 00:26:17;;;;;;;;;;;;;;;;;;5069200;28;20034;-64
2022/12/07 00:28:42;;;;;;;;;;;;;;;;;;5068914;28;20406;-64
2022/12/07 00:31:07;;;;;;;;;;;;;;;;;;5068669;28;19912;-63
2022/12/07 00:33:33;;;;;;;;;;;;;;;;;;5074541;28;19961;-64
2022/12/07 00:35:58;;;;;;;;;;;;;;;;;;5073611;28;19936;-64
2022/12/07 00:38:23;;;;;;;;;;;;;;;;;;5101747;28;19913;-63
2022/12/07 00:40:48;;;;;;;;;;;;;;;;;;5070691;28;19920;-63
2022/12/07 00:43:13;;;;;;;;;;;;;;;;;;5069427;28;19961;-63
2022/12/07 00:45:38;;;;;;;;;;;;;;;;;;5068014;28;19973;-63
2022/12/07 00:48:03;;;;;;;;;;;;;;;;;;5070409;28;19916;-63
2022/12/07 00:50:29;;;;;;;;;;;;;;;;;;5098885;28;19913;-64
2022/12/07 00:52:54;;;;;;;;;;;;;;;;;;5101754;28;19912;-63
2022/12/07 00:55:19;;;;;;;;;;;;;;;;;;5065059;28;19912;-63
2022/12/07 00:57:44;;;;;;;;;;;;;;;;;;5101137;28;19913;-63
2022/12/07 01:00:09;;;;;;;;;;;;;;;;;;5071233;28;19912;-63
2022/12/07 01:02:34;;;;;;;;;;;;;;;;;;5063032;28;19920;-63
2022/12/07 01:04:59;;;;;;;;;;;;;;;;;;5068789;28;19964;-63
2022/12/07 01:07:25;;;;;;;;;;;;;;;;;;5071494;28;20296;-63
2022/12/07 01:09:50;;;;;;;;;;;;;;;;;;5068108;28;20349;-63
2022/12/07 01:12:15;;;;;;;;;;;;;;;;;;5072128;28;19924;-63
2022/12/07 01:14:40;;;;;;;;;;;;;;;;;;5070708;28;20007;-63
2022/12/07 01:17:05;;;;;;;;;;;;;;;;;;5072749;28;19966;-63
2022/12/07 01:19:30;;;;;;;;;;;;;;;;;;5080120;28;20026;-63
2022/12/07 01:21:55;;;;;;;;;;;;;;;;;;5073561;28;19917;-63
2022/12/07 01:24:20;;;;;;;;;;;;;;;;;;5071142;28;20361;-64
2022/12/07 01:26:46;;;;;;;;;;;;;;;;;;5065204;28;19917;-63
2022/12/07 01:29:11;;;;;;;;;;;;;;;;;;5098316;28;19921;-64
2022/12/07 01:31:36;;;;;;;;;;;;;;;;;;5070670;28;19912;-64
2022/12/07 01:34:01;;;;;;;;;;;;;;;;;;5104047;28;19913;-63
2022/12/07 01:36:26;;;;;;;;;;;;;;;;;;5071660;28;21085;-63
2022/12/07 01:38:52;;;;;;;;;;;;;;;;;;5076491;28;20379;-63
2022/12/07 01:41:17;;;;;;;;;;;;;;;;;;5102644;28;19928;-63
2022/12/07 01:43:42;;;;;;;;;;;;;;;;;;5103600;27;19961;-63
2022/12/07 01:46:07;;;;;;;;;;;;;;;;;;5072984;28;19934;-63
2022/12/07 01:48:32;;;;;;;;;;;;;;;;;;5071859;28;19924;-64
2022/12/07 01:50:57;;;;;;;;;;;;;;;;;;5073761;28;19919;-64
2022/12/07 01:53:23;;;;;;;;;;;;;;;;;;5072878;28;20015;-64
2022/12/07 01:55:48;;;;;;;;;;;;;;;;;;5073676;28;19923;-64
2022/12/07 01:58:13;;;;;;;;;;;;;;;;;;5063683;28;19919;-64
2022/12/07 02:00:38;;;;;;;;;;;;;;;;;;5069456;28;20010;-64
2022/12/07 02:03:03;;;;;;;;;;;;;;;;;;5072367;28;19913;-64
2022/12/07 02:05:28;;;;;;;;;;;;;;;;;;5071603;28;19939;-64
2022/12/07 02:07:53;;;;;;;;;;;;;;;;;;5076772;28;19966;-64
2022/12/07 02:10:19;;;;;;;;;;;;;;;;;;5065495;28;19939;-64
2022/12/07 02:12:44;;;;;;;;;;;;;;;;;;5069279;28;19960;-63
2022/12/07 02:15:09;;;;;;;;;;;;;;;;;;5104209;28;19916;-64
2022/12/07 02:17:35;;;;;;;;;;;;;;;;;;5064785;28;20678;-64
2022/12/07 02:20:00;;;;;;;;;;;;;;;;;;5070298;28;19973;-64
2022/12/07 02:22:25;;;;;;;;;;;;;;;;;;5072163;28;20326;-64
2022/12/07 02:24:50;;;;;;;;;;;;;;;;;;5072801;28;19920;-64
2022/12/07 02:27:15;;;;;;;;;;;;;;;;;;5069551;28;19920;-64
2022/12/07 02:29:40;;;;;;;;;;;;;;;;;;5105608;28;20362;-64
2022/12/07 02:32:05;;;;;;;;;;;;;;;;;;5063856;28;19989;-64
2022/12/07 02:34:31;;;;;;;;;;;;;;;;;;5072783;28;19919;-64
2022/12/07 02:36:56;;;;;;;;;;;;;;;;;;5104384;28;19917;-64
2022/12/07 02:39:21;;;;;;;;;;;;;;;;;;5071985;28;19994;-64
2022/12/07 02:41:46;;;;;;;;;;;;;;;;;;5070762;28;20011;-64
2022/12/07 02:44:12;;;;;;;;;;;;;;;;;;5067777;28;19916;-64
2022/12/07 02:46:37;;;;;;;;;;;;;;;;;;5070793;28;19923;-63
2022/12/07 02:49:02;;;;;;;;;;;;;;;;;;5099566;27;19917;-64
2022/12/07 02:51:27;;;;;;;;;;;;;;;;;;5073433;28;20016;-63
2022/12/07 02:53:53;;;;;;;;;;;;;;;;;;5070131;28;19916;-64
2022/12/07 02:56:18;;;;;;;;;;;;;;;;;;5098291;28;19924;-64
2022/12/07 02:58:43;;;;;;;;;;;;;;;;;;5066862;28;20324;-64
2022/12/07 03:01:08;;;;;;;;;;;;;;;;;;5102669;28;20027;-64
2022/12/07 03:03:33;;;;;;;;;;;;;;;;;;5063564;28;19913;-64
2022/12/07 03:05:58;;;;;;;;;;;;;;;;;;5067615;28;19913;-64
2022/12/07 03:08:23;;;;;;;;;;;;;;;;;;5070311;28;20292;-64
2022/12/07 03:10:49;;;;;;;;;;;;;;;;;;5070533;28;20372;-64
2022/12/07 03:13:14;;;;;;;;;;;;;;;;;;5069037;28;19913;-64
2022/12/07 03:15:39;;;;;;;;;;;;;;;;;;5064663;28;19928;-64
2022/12/07 03:18:04;;;;;;;;;;;;;;;;;;5075858;28;19913;-64
2022/12/07 03:20:29;;;;;;;;;;;;;;;;;;5063908;28;19920;-64
2022/12/07 03:22:54;;;;;;;;;;;;;;;;;;5066291;28;20262;-64
2022/12/07 03:25:19;;;;;;;;;;;;;;;;;;5066963;28;20332;-64
2022/12/07 03:27:44;;;;;;;;;;;;;;;;;;5063268;28;20330;-64
2022/12/07 03:30:10;;;;;;;;;;;;;;;;;;5102070;28;20382;-64
2022/12/07 03:32:35;;;;;;;;;;;;;;;;;;5070220;28;19921;-64
2022/12/07 03:35:00;;;;;;;;;;;;;;;;;;5103628;28;20372;-64
2022/12/07 03:37:25;;;;;;;;;;;;;;;;;;5070351;28;19917;-64
2022/12/07 03:39:50;;;;;;;;;;;;;;;;;;5071439;28;19913;-64
2022/12/07 03:42:15;;;;;;;;;;;;;;;;;;5102183;28;19908;-64
2022/12/07 03:44:41;;;;;;;;;;;;;;;;;;5068562;28;19995;-64
2022/12/07 03:47:06;;;;;;;;;;;;;;;;;;5070360;28;19946;-63
2022/12/07 03:49:31;;;;;;;;;;;;;;;;;;5071342;28;19916;-64
2022/12/07 03:51:56;;;;;;;;;;;;;;;;;;5078658;28;19912;-64
2022/12/07 03:54:21;;;;;;;;;;;;;;;;;;5087084;28;19913;-64
2022/12/07 03:56:46;;;;;;;;;;;;;;;;;;5069222;28;20322;-64
2022/12/07 03:59:11;;;;;;;;;;;;;;;;;;5068791;28;19915;-64
2022/12/07 04:01:36;;;;;;;;;;;;;;;;;;5069310;28;19996;-64
2022/12/07 04:04:02;;;;;;;;;;;;;;;;;;5063044;28;19913;-63
2022/12/07 04:06:27;;;;;;;;;;;;;;;;;;5102165;28;20308;-64
2022/12/07 04:08:52;;;;;;;;;;;;;;;;;;5064576;28;19916;-64
2022/12/07 04:11:17;;;;;;;;;;;;;;;;;;5070714;28;19912;-64
2022/12/07 04:16:26;;;;;;;;;;;;;;;;;;5070834;28;20328;-63
2022/12/07 04:18:51;;;;;;;;;;;;;;;;;;5097503;28;19908;-64
2022/12/07 04:21:16;;;;;;;;;;;;;;;;;;5069078;28;19917;-64
2022/12/07 04:23:41;;;;;;;;;;;;;;;;;;5069125;28;20266;-64
2022/12/07 04:26:06;;;;;;;;;;;;;;;;;;5069354;28;19973;-64
2022/12/07 04:28:32;;;;;;;;;;;;;;;;;;5059643;28;19924;-64
2022/12/07 04:30:57;;;;;;;;;;;;;;;;;;5067934;28;20305;-64
2022/12/07 04:33:22;;;;;;;;;;;;;;;;;;5072232;28;20323;-64
2022/12/07 04:35:47;;;;;;;;;;;;;;;;;;5070364;28;19916;-64
2022/12/07 04:38:12;;;;;;;;;;;;;;;;;;5062731;28;20293;-64
2022/12/07 04:40:37;;;;;;;;;;;;;;;;;;5070547;28;19916;-64
2022/12/07 04:43:02;;;;;;;;;;;;;;;;;;5066975;28;20383;-64
2022/12/07 04:45:28;;;;;;;;;;;;;;;;;;5071615;28;19962;-64
2022/12/07 04:47:53;;;;;;;;;;;;;;;;;;5074924;28;19912;-64
2022/12/07 04:50:18;;;;;;;;;;;;;;;;;;5069826;28;20061;-64
2022/12/07 04:52:43;;;;;;;;;;;;;;;;;;5068420;28;19958;-64
2022/12/07 04:55:08;;;;;;;;;;;;;;;;;;5069514;28;19919;-64
2022/12/07 04:57:33;;;;;;;;;;;;;;;;;;5060412;28;20392;-64
2022/12/07 04:59:58;;;;;;;;;;;;;;;;;;5101581;28;19920;-64
2022/12/07 05:02:23;;;;;;;;;;;;;;;;;;5072035;28;20011;-64
2022/12/07 05:04:48;;;;;;;;;;;;;;;;;;5075845;28;19921;-63
2022/12/07 05:07:14;;;;;;;;;;;;;;;;;;5099402;28;20409;-64
2022/12/07 05:09:39;;;;;;;;;;;;;;;;;;5070119;28;20081;-64
2022/12/07 05:12:04;;;;;;;;;;;;;;;;;;5093224;28;19913;-64
2022/12/07 05:14:29;;;;;;;;;;;;;;;;;;5068102;28;19920;-63
2022/12/07 05:16:54;;;;;;;;;;;;;;;;;;5069961;28;19922;-63
2022/12/07 05:19:19;;;;;;;;;;;;;;;;;;5059904;28;20019;-64
2022/12/07 05:21:44;;;;;;;;;;;;;;;;;;5097615;28;19916;-63
2022/12/07 05:24:10;;;;;;;;;;;;;;;;;;5073502;28;19924;-63
2022/12/07 05:26:35;;;;;;;;;;;;;;;;;;5068157;28;19925;-63
2022/12/07 05:29:00;;;;;;;;;;;;;;;;;;5102232;28;19917;-63
2022/12/07 05:31:25;;;;;;;;;;;;;;;;;;5067567;28;19913;-63
2022/12/07 05:33:50;;;;;;;;;;;;;;;;;;5069112;28;20356;-63
2022/12/07 05:36:15;;;;;;;;;;;;;;;;;;5101406;28;20288;-63
2022/12/07 05:38:40;;;;;;;;;;;;;;;;;;5060882;28;19935;-63
2022/12/07 05:41:06;;;;;;;;;;;;;;;;;;5069813;28;20007;-64
2022/12/07 05:43:31;;;;;;;;;;;;;;;;;;5061496;28;19951;-64
2022/12/07 05:45:56;;;;;;;;;;;;;;;;;;5068155;28;19979;-63
2022/12/07 05:48:21;;;;;;;;;;;;;;;;;;5069507;28;19924;-63
2022/12/07 05:50:46;;;;;;;;;;;;;;;;;;5069488;28;19932;-63
2022/12/07 05:53:11;;;;;;;;;;;;;;;;;;5069463;28;19919;-63
2022/12/07 05:55:36;;;;;;;;;;;;;;;;;;5066723;28;19943;-63
2022/12/07 06:00:45;;;;;;;;;;;;;;;;;;5071993;28;19935;-63
2022/12/07 06:03:11;;;;;;;;;;;;;;;;;;5072007;28;19912;-63
2022/12/07 06:05:36;;;;;;;;;;;;;;;;;;5100911;27;19912;-63
2022/12/07 06:08:01;;;;;;;;;;;;;;;;;;5101693;27;19928;-64
2022/12/07 06:10:26;;;;;;;;;;;;;;;;;;5071060;28;19917;-63
2022/12/07 06:12:51;;;;;;;;;;;;;;;;;;5063431;28;19921;-63
2022/12/07 06:15:16;;;;;;;;;;;;;;;;;;5067343;28;19922;-63
2022/12/07 06:17:41;;;;;;;;;;;;;;;;;;5070028;28;20007;-63
2022/12/07 06:20:06;;;;;;;;;;;;;;;;;;5102671;28;20446;-63
2022/12/07 06:22:32;;;;;;;;;;;;;;;;;;5070435;28;19924;-63
2022/12/07 06:24:57;;;;;;;;;;;;;;;;;;5063680;28;20389;-63
2022/12/07 06:27:22;;;;;;;;;;;;;;;;;;5071892;28;19912;-63
2022/12/07 06:29:47;;;;;;;;;;;;;;;;;;5071208;28;19916;-63
2022/12/07 06:32:12;;;;;;;;;;;;;;;;;;5075827;28;19913;-63
2022/12/07 06:34:37;;;;;;;;;;;;;;;;;;5068752;28;20358;-63
2022/12/07 06:37:03;;;;;;;;;;;;;;;;;;5101165;27;20859;-63
2022/12/07 06:39:28;;;;;;;;;;;;;;;;;;5072259;28;19917;-63
2022/12/07 06:41:53;;;;;;;;;;;;;;;;;;5071355;28;19912;-63
2022/12/07 06:44:18;;;;;;;;;;;;;;;;;;5099251;27;19916;-63
2022/12/07 06:46:44;;;;;;;;;;;;;;;;;;5071097;28;19962;-63
2022/12/07 06:49:09;;;;;;;;;;;;;;;;;;5101747;28;20376;-63
2022/12/07 06:51:36;;;;;;;;;;;;;;;;;;5104876;27;19956;-63
2022/12/07 06:54:01;;;;;;;;;;;;;;;;;;5072269;28;19965;-63
2022/12/07 06:56:26;;;;;;;;;;;;;;;;;;5071664;28;20002;-63
2022/12/07 06:58:51;;;;;;;;;;;;;;;;;;5071227;28;19916;-63
2022/12/07 07:01:16;;;;;;;;;;;;;;;;;;5061261;28;19923;-63
2022/12/07 07:03:41;;;;;;;;;;;;;;;;;;5064821;28;19930;-63
2022/12/07 07:06:07;;;;;;;;;;;;;;;;;;5102591;27;19963;-63
2022/12/07 07:08:32;;;;;;;;;;;;;;;;;;5097880;27;20015;-63
2022/12/07 07:10:57;;;;;;;;;;;;;;;;;;5065651;28;19920;-63
2022/12/07 07:13:22;;;;;;;;;;;;;;;;;;5065853;28;19992;-63
2022/12/07 07:15:47;;;;;;;;;;;;;;;;;;5072606;28;20007;-63
2022/12/07 07:18:13;;;;;;;;;;;;;;;;;;5065959;28;19908;-63
2022/12/07 07:20:38;;;;;;;;;;;;;;;;;;5103353;28;20006;-63
2022/12/07 07:23:03;;;;;;;;;;;;;;;;;;5068609;28;19912;-64
2022/12/07 07:25:28;;;;;;;;;;;;;;;;;;5073083;28;19925;-63
2022/12/07 07:27:53;;;;;;;;;;;;;;;;;;5071640;28;19909;-63
2022/12/07 07:30:18;;;;;;;;;;;;;;;;;;5073267;28;19913;-64
2022/12/07 07:32:43;;;;;;;;;;;;;;;;;;5073443;28;19909;-63
2022/12/07 07:35:08;;;;;;;;;;;;;;;;;;5073167;28;19931;-63
2022/12/07 07:37:34;;;;;;;;;;;;;;;;;;5071688;28;19916;-63
2022/12/07 07:39:59;;;;;;;;;;;;;;;;;;5071840;28;19951;-63
2022/12/07 07:42:24;;;;;;;;;;;;;;;;;;5071886;28;19916;-63
2022/12/07 07:44:49;;;;;;;;;;;;;;;;;;5087022;28;19920;-63
2022/12/07 07:47:14;;;;;;;;;;;;;;;;;;5088823;28;20378;-63
2022/12/07 07:49:39;;;;;;;;;;;;;;;;;;5071594;28;20012;-63
2022/12/07 07:52:04;;;;;;;;;;;;;;;;;;5072824;28;20468;-64
2022/12/07 07:54:30;;;;;;;;;;;;;;;;;;5088195;28;19915;-63
2022/12/07 07:56:55;;;;;;;;;;;;;;;;;;5072531;28;19963;-63
2022/12/07 07:59:20;;;;;;;;;;;;;;;;;;5072709;28;19904;-62
2022/12/07 08:01:45;;;;;;;;;;;;;;;;;;5071224;28;19919;-62
2022/12/07 08:04:10;;;;;;;;;;;;;;;;;;5072653;28;19909;-63
2022/12/07 08:06:35;;;;;;;;;;;;;;;;;;5072878;28;19915;-63
2022/12/07 08:09:01;;;;;;;;;;;;;;;;;;5072259;28;20007;-62
2022/12/07 08:11:26;;;;;;;;;;;;;;;;;;5070714;28;19920;-63
2022/12/07 08:13:51;;;;;;;;;;;;;;;;;;5070232;28;19912;-63
2022/12/07 08:16:16;;;;;;;;;;;;;;;;;;5087906;28;19931;-63
2022/12/07 08:18:41;;;;;;;;;;;;;;;;;;5087848;28;20003;-63
2022/12/07 08:21:06;;;;;;;;;;;;;;;;;;5070290;28;19912;-62
2022/12/07 08:23:31;;;;;;;;;;;;;;;;;;5072482;28;19908;-63
2022/12/07 08:25:57;;;;;;;;;;;;;;;;;;5072353;28;20033;-63
2022/12/07 08:28:22;;;;;;;;;;;;;;;;;;5069821;28;19917;-64
2022/12/07 08:30:47;;;;;;;;;;;;;;;;;;5069404;28;20391;-64
2022/12/07 08:33:12;;;;;;;;;;;;;;;;;;5069645;28;20428;-64
2022/12/07 08:35:37;;;;;;;;;;;;;;;;;;5070370;28;19917;-64
2022/12/07 08:38:03;;;;;;;;;;;;;;;;;;5063527;28;19912;-64
2022/12/07 08:40:28;;;;;;;;;;;;;;;;;;5070422;28;20008;-63
2022/12/07 08:42:53;;;;;;;;;;;;;;;;;;5092298;28;19920;-64
2022/12/07 08:45:18;;;;;;;;;;;;;;;;;;5069656;28;20003;-64
2022/12/07 08:47:43;;;;;;;;;;;;;;;;;;5078683;28;19912;-63
2022/12/07 08:50:09;;;;;;;;;;;;;;;;;;5072208;28;20356;-64
2022/12/07 08:52:34;;;;;;;;;;;;;;;;;;5063583;28;19912;-64
2022/12/07 08:54:59;;;;;;;;;;;;;;;;;;5070904;28;19916;-64
2022/12/07 08:57:24;;;;;;;;;;;;;;;;;;5074508;28;20262;-64
2022/12/07 08:59:49;;;;;;;;;;;;;;;;;;5070294;28;20061;-64
2022/12/07 09:02:14;;;;;;;;;;;;;;;;;;5058233;28;19913;-64
2022/12/07 09:04:39;;;;;;;;;;;;;;;;;;5070637;28;19913;-64
2022/12/07 09:07:05;;;;;;;;;;;;;;;;;;5070388;28;20003;-64
2022/12/07 09:09:30;;;;;;;;;;;;;;;;;;5071945;28;19916;-64
2022/12/07 09:11:55;;;;;;;;;;;;;;;;;;5070206;28;19913;-64
2022/12/07 09:14:20;;;;;;;;;;;;;;;;;;5061561;28;20493;-64
2022/12/07 09:16:45;;;;;;;;;;;;;;;;;;5068880;28;20066;-64
2022/12/07 09:19:10;;;;;;;;;;;;;;;;;;5062107;28;20333;-64
2022/12/07 09:21:35;;;;;;;;;;;;;;;;;;5102683;28;20003;-64
2022/12/07 09:24:01;;;;;;;;;;;;;;;;;;5068437;28;20288;-64
2022/12/07 09:26:26;;;;;;;;;;;;;;;;;;5070698;28;19931;-65
2022/12/07 09:28:51;;;;;;;;;;;;;;;;;;5073185;28;19925;-64
2022/12/07 09:31:16;;;;;;;;;;;;;;;;;;5074509;28;19951;-64
2022/12/07 09:33:42;;;;;;;;;;;;;;;;;;5106208;27;19965;-64
2022/12/07 09:36:07;;;;;;;;;;;;;;;;;;5108823;27;19916;-64
2022/12/07 09:38:32;;;;;;;;;;;;;;;;;;5080011;28;19912;-64
2022/12/07 09:40:57;;;;;;;;;;;;;;;;;;5072379;28;20015;-64
2022/12/07 09:43:22;;;;;;;;;;;;;;;;;;5062958;28;19921;-64
2022/12/07 09:45:48;;;;;;;;;;;;;;;;;;5070673;28;20011;-64
2022/12/07 09:48:13;;;;;;;;;;;;;;;;;;5071445;28;19956;-64
2022/12/07 09:50:38;;;;;;;;;;;;;;;;;;5074148;28;20292;-64
2022/12/07 09:53:03;;;;;;;;;;;;;;;;;;5070578;28;19960;-63
2022/12/07 09:55:28;;;;;;;;;;;;;;;;;;5095858;28;19920;-63
2022/12/07 09:57:53;;;;;;;;;;;;;;;;;;5065140;28;19920;-63
2022/12/07 10:00:19;;;;;;;;;;;;;;;;;;5070748;28;19924;-63
2022/12/07 10:02:45;;;;;;;;;;;;;;;;;;5073385;28;19959;-63
2022/12/07 10:05:10;;;;;;;;;;;;;;;;;;5105464;27;20409;-63
2022/12/07 10:07:36;;;;;;;;;;;;;;;;;;5070940;28;19916;-64
2022/12/07 10:10:01;;;;;;;;;;;;;;;;;;5103991;28;20018;-63
2022/12/07 10:12:26;;;;;;;;;;;;;;;;;;5072341;28;20023;-63
2022/12/07 10:14:52;;;;;;;;;;;;;;;;;;5065678;28;19912;-63
2022/12/07 10:17:17;;;;;;;;;;;;;;;;;;5068727;28;19967;-63
2022/12/07 10:19:42;;;;;;;;;;;;;;;;;;5103647;27;20340;-63
2022/12/07 10:22:07;;;;;;;;;;;;;;;;;;5098632;27;19920;-63
2022/12/07 10:24:32;;;;;;;;;;;;;;;;;;5071918;28;19924;-63
2022/12/07 10:26:57;;;;;;;;;;;;;;;;;;5068725;28;19913;-63
2022/12/07 10:29:22;;;;;;;;;;;;;;;;;;5071113;28;19921;-63
2022/12/07 10:31:47;;;;;;;;;;;;;;;;;;5073846;28;19924;-63
2022/12/07 10:34:13;;;;;;;;;;;;;;;;;;5071831;28;19956;-63
2022/12/07 10:36:38;;;;;;;;;;;;;;;;;;5065509;28;19958;-63
2022/12/07 10:39:03;;;;;;;;;;;;;;;;;;5069700;28;20335;-64
2022/12/07 10:41:28;;;;;;;;;;;;;;;;;;5102690;27;19943;-63
2022/12/07 10:43:54;;;;;;;;;;;;;;;;;;5063021;28;19912;-63
2022/12/07 10:46:19;;;;;;;;;;;;;;;;;;5070115;28;19920;-63
2022/12/07 10:48:44;;;;;;;;;;;;;;;;;;5068194;28;20035;-63
2022/12/07 10:51:09;;;;;;;;;;;;;;;;;;5071548;28;19966;-63
2022/12/07 10:53:34;;;;;;;;;;;;;;;;;;5068962;28;19999;-63
2022/12/07 10:55:59;;;;;;;;;;;;;;;;;;5104008;27;19967;-63
2022/12/07 10:58:24;;;;;;;;;;;;;;;;;;5070780;28;19913;-63
2022/12/07 11:00:49;;;;;;;;;;;;;;;;;;5067959;28;19912;-63
2022/12/07 11:03:15;;;;;;;;;;;;;;;;;;5105564;27;19920;-63
2022/12/07 11:05:40;;;;;;;;;;;;;;;;;;5078413;28;19913;-63
2022/12/07 11:08:06;;;;;;;;;;;;;;;;;;5069845;28;19919;-63
2022/12/07 11:10:31;;;;;;;;;;;;;;;;;;5101255;27;19916;-63
2022/12/07 11:12:56;;;;;;;;;;;;;;;;;;5067382;28;19920;-63
2022/12/07 11:15:21;;;;;;;;;;;;;;;;;;5063636;28;20392;-63
2022/12/07 11:17:47;;;;;;;;;;;;;;;;;;5103564;27;19912;-63
2022/12/07 11:20:12;;;;;;;;;;;;;;;;;;5098421;28;20003;-63
2022/12/07 11:22:37;;;;;;;;;;;;;;;;;;5104334;27;20407;-63
2022/12/07 11:25:02;;;;;;;;;;;;;;;;;;5104397;27;20331;-63
2022/12/07 11:27:27;;;;;;;;;;;;;;;;;;5064073;28;19919;-63
2022/12/07 11:29:52;;;;;;;;;;;;;;;;;;5096070;27;19923;-63
2022/12/07 11:32:19;;;;;;;;;;;;;;;;;;5099607;27;19955;-63
2022/12/07 11:34:44;;;;;;;;;;;;;;;;;;5064745;28;20365;-64
2022/12/07 11:37:12;;;;;;;;;;;;;;;;;;5071974;28;20120;-63
2022/12/07 11:39:37;;;;;;;;;;;;;;;;;;5070485;28;19912;-63
2022/12/07 11:42:02;;;;;;;;;;;;;;;;;;5102867;28;19918;-64
2022/12/07 11:44:27;;;;;;;;;;;;;;;;;;5061430;28;19916;-64
2022/12/07 11:46:53;;;;;;;;;;;;;;;;;;5070836;28;20357;-64
2022/12/07 11:49:18;;;;;;;;;;;;;;;;;;5103159;27;20441;-64
2022/12/07 11:51:43;;;;;;;;;;;;;;;;;;5080177;28;19913;-63
2022/12/07 11:54:08;;;;;;;;;;;;;;;;;;5105009;27;19916;-63
2022/12/07 11:56:33;;;;;;;;;;;;;;;;;;5071232;28;19966;-63
2022/12/07 11:58:58;;;;;;;;;;;;;;;;;;5058579;28;20399;-63
2022/12/07 12:01:23;;;;;;;;;;;;;;;;;;5069357;28;20399;-63
2022/12/07 12:03:49;;;;;;;;;;;;;;;;;;5071845;28;19917;-63
2022/12/07 12:06:14;;;;;;;;;;;;;;;;;;5102612;28;19999;-63
2022/12/07 12:08:39;;;;;;;;;;;;;;;;;;5070013;28;19989;-63
2022/12/07 12:11:04;;;;;;;;;;;;;;;;;;5073091;28;19912;-64
2022/12/07 12:13:29;;;;;;;;;;;;;;;;;;5066368;28;19920;-63
2022/12/07 12:15:54;;;;;;;;;;;;;;;;;;5087925;28;19912;-63
2022/12/07 12:18:20;;;;;;;;;;;;;;;;;;5103163;28;19923;-63
2022/12/07 12:20:45;;;;;;;;;;;;;;;;;;5088092;28;19996;-63
2022/12/07 12:23:10;;;;;;;;;;;;;;;;;;5072525;28;20363;-64
2022/12/07 12:25:35;;;;;;;;;;;;;;;;;;5072275;28;20399;-63
2022/12/07 12:28:00;;;;;;;;;;;;;;;;;;5071243;28;19920;-63
2022/12/07 12:30:25;;;;;;;;;;;;;;;;;;5072473;28;19920;-63
2022/12/07 12:32:50;;;;;;;;;;;;;;;;;;5070103;28;19919;-64
2022/12/07 12:35:16;;;;;;;;;;;;;;;;;;5072438;28;19961;-64
2022/12/07 12:37:41;;;;;;;;;;;;;;;;;;5086451;28;19915;-64
2022/12/07 12:40:06;;;;;;;;;;;;;;;;;;5073647;28;19933;-63
2022/12/07 12:42:31;;;;;;;;;;;;;;;;;;5070421;28;19916;-63
2022/12/07 12:44:56;;;;;;;;;;;;;;;;;;5071025;28;19912;-63
2022/12/07 12:47:21;;;;;;;;;;;;;;;;;;5072341;28;19909;-64
2022/12/07 12:49:47;;;;;;;;;;;;;;;;;;5071333;28;20253;-64
2022/12/07 12:52:12;;;;;;;;;;;;;;;;;;5087747;28;20601;-63
2022/12/07 12:54:37;;;;;;;;;;;;;;;;;;5072292;28;20273;-64
2022/12/07 12:57:02;;;;;;;;;;;;;;;;;;5071976;28;19912;-64
2022/12/07 12:59:27;;;;;;;;;;;;;;;;;;5072174;28;19909;-64
2022/12/07 13:01:52;;;;;;;;;;;;;;;;;;5072063;28;19920;-64
2022/12/07 13:04:17;;;;;;;;;;;;;;;;;;5074630;28;19962;-63
2022/12/07 13:06:43;;;;;;;;;;;;;;;;;;5076167;28;19920;-64
2022/12/07 13:09:08;;;;;;;;;;;;;;;;;;5072460;28;19964;-64
2022/12/07 13:11:33;;;;;;;;;;;;;;;;;;5107405;28;19920;-64
2022/12/07 13:13:58;;;;;;;;;;;;;;;;;;5073752;28;19966;-63
2022/12/07 13:16:23;;;;;;;;;;;;;;;;;;5075786;28;20052;-64
2022/12/07 13:18:48;;;;;;;;;;;;;;;;;;5075795;28;20280;-64
2022/12/07 13:21:13;;;;;;;;;;;;;;;;;;5075220;28;20293;-64
2022/12/07 13:23:38;;;;;;;;;;;;;;;;;;5076135;28;19919;-64
2022/12/07 13:26:04;;;;;;;;;;;;;;;;;;5075883;28;19928;-64
2022/12/07 13:28:29;;;;;;;;;;;;;;;;;;5075248;28;19924;-63
2022/12/07 13:30:54;;;;;;;;;;;;;;;;;;5074087;28;20403;-63
2022/12/07 13:33:19;;;;;;;;;;;;;;;;;;5108328;28;20373;-64
2022/12/07 13:35:44;;;;;;;;;;;;;;;;;;5078394;28;19912;-63
2022/12/07 13:38:10;;;;;;;;;;;;;;;;;;5079360;28;19916;-64
2022/12/07 13:40:35;;;;;;;;;;;;;;;;;;5073602;28;20357;-64
2022/12/07 13:43:00;;;;;;;;;;;;;;;;;;5078850;28;20396;-60
2022/12/07 13:48:09;;;;;;;;;;;;;;;;;;5063646;28;19924;-65
2022/12/07 13:50:34;;;;;;;;;;;;;;;;;;5071340;28;19917;-64
2022/12/07 13:53:00;;;;;;;;;;;;;;;;;;5071312;28;20436;-66
2022/12/07 13:55:25;;;;;;;;;;;;;;;;;;5075013;28;19909;-65
2022/12/07 13:57:50;;;;;;;;;;;;;;;;;;5074686;28;19916;-64
2022/12/07 14:00:15;;;;;;;;;;;;;;;;;;5072814;28;19999;-64
2022/12/07 14:02:40;;;;;;;;;;;;;;;;;;5073332;28;20273;-67
2022/12/07 14:05:05;;;;;;;;;;;;;;;;;;5073971;28;20281;-71
2022/12/07 14:07:30;;;;;;;;;;;;;;;;;;5073100;28;19912;-67
2022/12/07 14:09:55;;;;;;;;;;;;;;;;;;5070903;28;20019;-64
2022/12/07 14:12:21;;;;;;;;;;;;;;;;;;5073581;28;19951;-65
2022/12/07 14:14:46;;;;;;;;;;;;;;;;;;5068606;28;19912;-65
2022/12/07 14:17:11;;;;;;;;;;;;;;;;;;5104516;27;19942;-60
2022/12/07 14:19:36;;;;;;;;;;;;;;;;;;5068943;28;19958;-62
2022/12/07 14:22:01;;;;;;;;;;;;;;;;;;5064063;28;19919;-62
2022/12/07 14:24:26;;;;;;;;;;;;;;;;;;5083799;28;19918;-63
2022/12/07 14:26:51;;;;;;;;;;;;;;;;;;5071382;28;19924;-62
2022/12/07 14:29:16;;;;;;;;;;;;;;;;;;5070427;28;19962;-65
2022/12/07 14:31:42;;;;;;;;;;;;;;;;;;5104665;27;20405;-63
2022/12/07 14:34:07;;;;;;;;;;;;;;;;;;5075704;28;19913;-63
2022/12/07 14:36:32;;;;;;;;;;;;;;;;;;5058310;28;19913;-60
2022/12/07 14:38:59;;;;;;;;;;;;;;;;;;5073412;28;19913;-62
2022/12/07 14:44:08;;;;;;;;;;;;;;;;;;5067932;28;20038;-62
2022/12/07 14:46:33;;;;;;;;;;;;;;;;;;5066893;28;19988;-62
2022/12/07 14:48:58;;;;;;;;;;;;;;;;;;5056730;28;19917;-61
2022/12/07 14:51:23;;;;;;;;;;;;;;;;;;5096991;27;19939;-61
2022/12/07 14:53:49;;;;;;;;;;;;;;;;;;5060604;28;20367;-61
2022/12/07 14:56:14;;;;;;;;;;;;;;;;;;5071337;28;20357;-62
2022/12/07 14:58:39;;;;;;;;;;;;;;;;;;5092019;28;19955;-62
2022/12/07 15:01:04;;;;;;;;;;;;;;;;;;5098074;27;19912;-61
2022/12/07 15:03:29;;;;;;;;;;;;;;;;;;5086977;28;19920;-62
2022/12/07 15:05:55;;;;;;;;;;;;;;;;;;5073408;28;19995;-62
2022/12/07 15:08:20;;;;;;;;;;;;;;;;;;5073439;28;19935;-62
2022/12/07 15:10:45;;;;;;;;;;;;;;;;;;5104708;28;20458;-63
2022/12/07 15:15:54;;;;;;;;;;;;;;;;;;5072345;28;19935;-62
2022/12/07 15:18:19;;;;;;;;;;;;;;;;;;5072333;28;20114;-62
2022/12/07 15:20:44;;;;;;;;;;;;;;;;;;5073617;28;19995;-62
2022/12/07 15:23:09;;;;;;;;;;;;;;;;;;5103984;27;19927;-62
2022/12/07 15:25:34;;;;;;;;;;;;;;;;;;5102679;28;19921;-62
2022/12/07 15:27:59;;;;;;;;;;;;;;;;;;5072773;28;19912;-62
2022/12/07 15:30:24;;;;;;;;;;;;;;;;;;5072480;28;19962;-62
2022/12/07 15:32:51;;;;;;;;;;;;;;;;;;5101222;28;20197;-62
2022/12/07 15:35:16;;;;;;;;;;;;;;;;;;5073048;28;19958;-62
2022/12/07 15:37:42;;;;;;;;;;;;;;;;;;5104433;28;19913;-63
2022/12/07 15:40:07;;;;;;;;;;;;;;;;;;5104332;28;20219;-62
2022/12/07 15:42:32;;;;;;;;;;;;;;;;;;5069842;28;20389;-62
2022/12/07 15:45:03;;;;;;;;;;;;;;;;;;5067898;28;19908;-61
2022/12/07 15:47:28;;;;;;;;;;;;;;;;;;5072801;28;19954;-64
2022/12/07 15:49:53;;;;;;;;;;;;;;;;;;5072340;28;19956;-60
2022/12/07 15:52:19;;;;;;;;;;;;;;;;;;5104322;28;19935;-65
2022/12/07 15:54:44;;;;;;;;;;;;;;;;;;5069039;28;20363;-63
2022/12/07 15:57:09;;;;;;;;;;;;;;;;;;5105047;28;19943;-62
2022/12/07 15:59:34;;;;;;;;;;;;;;;;;;5104268;28;19982;-61
2022/12/07 16:01:59;;;;;;;;;;;;;;;;;;5072609;28;20292;-61
2022/12/07 16:04:25;;;;;;;;;;;;;;;;;;5072889;28;20038;-62
2022/12/07 16:06:50;;;;;;;;;;;;;;;;;;5070688;28;19912;-58
2022/12/07 16:09:16;;;;;;;;;;;;;;;;;;5071365;28;20493;-61
2022/12/07 16:11:41;;;;;;;;;;;;;;;;;;5070239;28;19912;-62
2022/12/07 16:14:06;;;;;;;;;;;;;;;;;;5068517;28;19912;-61
2022/12/07 16:16:31;;;;;;;;;;;;;;;;;;5084229;28;19919;-61
2022/12/07 16:18:56;;;;;;;;;;;;;;;;;;5068922;28;19959;-61
2022/12/07 16:21:21;;;;;;;;;;;;;;;;;;5071301;28;19920;-61
2022/12/07 16:23:46;;;;;;;;;;;;;;;;;;5069967;28;19986;-61
2022/12/07 16:26:12;;;;;;;;;;;;;;;;;;5065576;28;19928;-62
2022/12/07 16:28:37;;;;;;;;;;;;;;;;;;5060082;28;20404;-61
2022/12/07 16:31:02;;;;;;;;;;;;;;;;;;5064655;28;19913;-62
2022/12/07 16:33:27;;;;;;;;;;;;;;;;;;5070938;28;19995;-62
2022/12/07 16:35:52;;;;;;;;;;;;;;;;;;5079049;28;20426;-61
2022/12/07 16:38:17;;;;;;;;;;;;;;;;;;5067666;28;20376;-61
2022/12/07 16:40:43;;;;;;;;;;;;;;;;;;5081901;28;19999;-60
2022/12/07 16:43:09;;;;;;;;;;;;;;;;;;5068649;28;20361;-60
2022/12/07 16:45:34;;;;;;;;;;;;;;;;;;5071919;28;20000;-60